sensor_id;sensor_type;location;lat;lon;timestamp;temperature;humidity
64226;DHT22;50545;56.064;26.178;2024-02-15T00:01:42;-1.10;99.90
64226;DHT22;50545;56.064;26.178;2024-02-15T00:04:10;-1.10;99.90
64226;DHT22;50545;56.064;26.178;2024-02-15T00:06:38;-1.10;99.90
64226;DHT22;50545;56.064;26.178;2024-02-15T00:09:06;-1.10;99.90
64226;DHT22;50545;56.064;26.178;2024-02-15T00:11:33;-1.20;99.90
64226;DHT22;50545;56.064;26.178;2024-02-15T00:14:01;-1.20;99.90
64226;DHT22;50545;56.064;26.178;2024-02-15T00:16:28;-1.20;99.90
64226;DHT22;50545;56.064;26.178;2024-02-15T00:18:56;-1.30;99.90
64226;DHT22;50545;56.064;26.178;2024-02-15T00:21:24;-1.30;99.90
64226;DHT22;50545;56.064;26.178;2024-02-15T00:23:51;-1.30;99.90
64226;DHT22;50545;56.064;26.178;2024-02-15T00:26:21;-1.40;99.90
64226;DHT22;50545;56.064;26.178;2024-02-15T00:28:49;-1.40;99.90
64226;DHT22;50545;56.064;26.178;2024-02-15T00:31:16;-1.40;99.90
64226;DHT22;50545;56.064;26.178;2024-02-15T00:33:44;-1.50;99.90
64226;DHT22;50545;56.064;26.178;2024-02-15T00:36:12;-1.50;99.90
64226;DHT22;50545;56.064;26.178;2024-02-15T00:38:41;-1.50;99.90
64226;DHT22;50545;56.064;26.178;2024-02-15T00:41:10;-1.50;99.90
64226;DHT22;50545;56.064;26.178;2024-02-15T00:43:37;-1.60;99.90
64226;DHT22;50545;56.064;26.178;2024-02-15T00:46:05;-1.60;99.90
64226;DHT22;50545;56.064;26.178;2024-02-15T00:48:33;-1.60;99.90
64226;DHT22;50545;56.064;26.178;2024-02-15T00:51:00;-1.60;99.90
64226;DHT22;50545;56.064;26.178;2024-02-15T00:53:28;-1.60;99.90
64226;DHT22;50545;56.064;26.178;2024-02-15T00:55:56;-1.60;99.90
64226;DHT22;50545;56.064;26.178;2024-02-15T00:58:23;-1.70;99.90
64226;DHT22;50545;56.064;26.178;2024-02-15T01:00:51;-1.70;99.90
64226;DHT22;50545;56.064;26.178;2024-02-15T01:03:19;-1.70;99.90
64226;DHT22;50545;56.064;26.178;2024-02-15T01:05:47;-1.70;99.90
64226;DHT22;50545;56.064;26.178;2024-02-15T01:08:14;-1.70;99.90
64226;DHT22;50545;56.064;26.178;2024-02-15T01:10:42;-1.70;99.90
64226;DHT22;50545;56.064;26.178;2024-02-15T01:13:09;-1.70;99.90
64226;DHT22;50545;56.064;26.178;2024-02-15T01:15:37;-1.70;99.90
64226;DHT22;50545;56.064;26.178;2024-02-15T01:18:06;-1.70;99.90
64226;DHT22;50545;56.064;26.178;2024-02-15T01:20:34;-1.80;99.90
64226;DHT22;50545;56.064;26.178;2024-02-15T01:23:02;-1.80;99.90
64226;DHT22;50545;56.064;26.178;2024-02-15T01:25:29;-1.80;99.90
64226;DHT22;50545;56.064;26.178;2024-02-15T01:27:57;-1.80;99.90
64226;DHT22;50545;56.064;26.178;2024-02-15T01:30:25;-1.80;99.90
64226;DHT22;50545;56.064;26.178;2024-02-15T01:32:52;-1.80;99.90
64226;DHT22;50545;56.064;26.178;2024-02-15T01:35:20;-1.90;99.90
64226;DHT22;50545;56.064;26.178;2024-02-15T01:37:47;-1.90;99.90
64226;DHT22;50545;56.064;26.178;2024-02-15T01:40:16;-2.00;99.90
64226;DHT22;50545;56.064;26.178;2024-02-15T01:42:46;-2.00;99.90
64226;DHT22;50545;56.064;26.178;2024-02-15T01:45:16;-2.00;99.90
64226;DHT22;50545;56.064;26.178;2024-02-15T01:47:44;-2.00;99.90
64226;DHT22;50545;56.064;26.178;2024-02-15T01:50:13;-2.00;99.90
64226;DHT22;50545;56.064;26.178;2024-02-15T01:52:41;-2.00;99.90
64226;DHT22;50545;56.064;26.178;2024-02-15T01:55:10;-2.00;99.90
64226;DHT22;50545;56.064;26.178;2024-02-15T01:57:39;-2.00;99.90
64226;DHT22;50545;56.064;26.178;2024-02-15T02:00:07;-1.90;99.90
64226;DHT22;50545;56.064;26.178;2024-02-15T02:02:39;-1.90;99.90
64226;DHT22;50545;56.064;26.178;2024-02-15T02:05:08;-1.90;99.90
64226;DHT22;50545;56.064;26.178;2024-02-15T02:07:37;-1.90;99.90
64226;DHT22;50545;56.064;26.178;2024-02-15T02:10:07;-1.90;99.90
64226;DHT22;50545;56.064;26.178;2024-02-15T02:12:36;-1.90;99.90
64226;DHT22;50545;56.064;26.178;2024-02-15T02:15:03;-1.90;99.90
64226;DHT22;50545;56.064;26.178;2024-02-15T02:17:32;-1.90;99.90
64226;DHT22;50545;56.064;26.178;2024-02-15T02:20:01;-1.90;99.90
64226;DHT22;50545;56.064;26.178;2024-02-15T02:22:36;-1.90;99.90
64226;DHT22;50545;56.064;26.178;2024-02-15T02:25:06;-1.90;99.90
64226;DHT22;50545;56.064;26.178;2024-02-15T02:27:36;-1.80;99.90
64226;DHT22;50545;56.064;26.178;2024-02-15T02:30:05;-1.80;99.90
64226;DHT22;50545;56.064;26.178;2024-02-15T02:32:37;-1.70;99.90
64226;DHT22;50545;56.064;26.178;2024-02-15T02:35:06;-1.60;99.90
64226;DHT22;50545;56.064;26.178;2024-02-15T02:37:34;-1.60;99.90
64226;DHT22;50545;56.064;26.178;2024-02-15T02:40:05;-1.50;99.90
64226;DHT22;50545;56.064;26.178;2024-02-15T02:42:46;-1.50;99.90
64226;DHT22;50545;56.064;26.178;2024-02-15T02:45:13;-1.40;99.90
64226;DHT22;50545;56.064;26.178;2024-02-15T02:47:40;-1.40;99.90
64226;DHT22;50545;56.064;26.178;2024-02-15T02:50:08;-1.40;99.90
64226;DHT22;50545;56.064;26.178;2024-02-15T02:52:36;-1.30;99.90
64226;DHT22;50545;56.064;26.178;2024-02-15T02:55:06;-1.30;99.90
64226;DHT22;50545;56.064;26.178;2024-02-15T02:57:36;-1.20;99.90
64226;DHT22;50545;56.064;26.178;2024-02-15T03:00:06;-1.20;99.90
64226;DHT22;50545;56.064;26.178;2024-02-15T03:02:40;-1.20;99.90
64226;DHT22;50545;56.064;26.178;2024-02-15T03:05:08;-1.10;99.90
64226;DHT22;50545;56.064;26.178;2024-02-15T03:07:36;-1.10;99.90
64226;DHT22;50545;56.064;26.178;2024-02-15T03:10:05;-1.10;99.90
64226;DHT22;50545;56.064;26.178;2024-02-15T03:12:39;-1.10;99.90
64226;DHT22;50545;56.064;26.178;2024-02-15T03:15:07;-1.00;99.90
64226;DHT22;50545;56.064;26.178;2024-02-15T03:17:42;-1.00;99.90
64226;DHT22;50545;56.064;26.178;2024-02-15T03:20:11;-1.00;99.90
64226;DHT22;50545;56.064;26.178;2024-02-15T03:22:44;-1.00;99.90
64226;DHT22;50545;56.064;26.178;2024-02-15T03:25:12;-0.90;99.90
64226;DHT22;50545;56.064;26.178;2024-02-15T03:27:39;-0.90;99.90
64226;DHT22;50545;56.064;26.178;2024-02-15T03:30:07;-0.90;99.90
64226;DHT22;50545;56.064;26.178;2024-02-15T03:32:35;-0.90;99.90
64226;DHT22;50545;56.064;26.178;2024-02-15T03:35:02;-0.80;99.90
64226;DHT22;50545;56.064;26.178;2024-02-15T03:37:30;-0.80;99.90
64226;DHT22;50545;56.064;26.178;2024-02-15T03:40:00;-0.80;99.90
64226;DHT22;50545;56.064;26.178;2024-02-15T03:42:28;-0.80;99.90
64226;DHT22;50545;56.064;26.178;2024-02-15T03:44:55;-0.80;99.90
64226;DHT22;50545;56.064;26.178;2024-02-15T03:47:23;-0.70;99.90
64226;DHT22;50545;56.064;26.178;2024-02-15T03:49:51;-0.70;99.90
64226;DHT22;50545;56.064;26.178;2024-02-15T03:52:18;-0.70;99.90
64226;DHT22;50545;56.064;26.178;2024-02-15T03:54:46;-0.70;99.90
64226;DHT22;50545;56.064;26.178;2024-02-15T03:57:14;-0.60;99.90
64226;DHT22;50545;56.064;26.178;2024-02-15T03:59:43;-0.60;99.90
64226;DHT22;50545;56.064;26.178;2024-02-15T04:02:12;-0.50;99.90
64226;DHT22;50545;56.064;26.178;2024-02-15T04:04:41;-0.50;99.90
64226;DHT22;50545;56.064;26.178;2024-02-15T04:07:10;-0.50;99.90
64226;DHT22;50545;56.064;26.178;2024-02-15T04:09:39;-0.40;99.90
64226;DHT22;50545;56.064;26.178;2024-02-15T04:12:07;-0.40;99.90
64226;DHT22;50545;56.064;26.178;2024-02-15T04:14:34;-0.30;99.90
64226;DHT22;50545;56.064;26.178;2024-02-15T04:17:02;-0.30;99.90
64226;DHT22;50545;56.064;26.178;2024-02-15T04:19:33;-0.30;99.90
64226;DHT22;50545;56.064;26.178;2024-02-15T04:22:00;-0.20;99.90
64226;DHT22;50545;56.064;26.178;2024-02-15T04:24:31;-0.10;99.90
64226;DHT22;50545;56.064;26.178;2024-02-15T04:26:59;-0.10;99.90
64226;DHT22;50545;56.064;26.178;2024-02-15T04:29:26;0.00;99.90
64226;DHT22;50545;56.064;26.178;2024-02-15T04:31:53;0.00;99.90
64226;DHT22;50545;56.064;26.178;2024-02-15T04:34:22;0.10;99.90
64226;DHT22;50545;56.064;26.178;2024-02-15T04:36:49;0.10;99.90
64226;DHT22;50545;56.064;26.178;2024-02-15T04:39:18;0.20;99.90
64226;DHT22;50545;56.064;26.178;2024-02-15T04:41:51;0.10;99.90
64226;DHT22;50545;56.064;26.178;2024-02-15T04:44:19;0.20;99.90
64226;DHT22;50545;56.064;26.178;2024-02-15T04:46:55;0.20;99.90
64226;DHT22;50545;56.064;26.178;2024-02-15T04:49:22;0.20;99.90
64226;DHT22;50545;56.064;26.178;2024-02-15T04:51:51;0.20;99.90
64226;DHT22;50545;56.064;26.178;2024-02-15T04:54:18;0.20;99.90
64226;DHT22;50545;56.064;26.178;2024-02-15T04:56:46;0.30;99.90
64226;DHT22;50545;56.064;26.178;2024-02-15T04:59:13;0.30;99.90
64226;DHT22;50545;56.064;26.178;2024-02-15T05:01:44;0.20;99.90
64226;DHT22;50545;56.064;26.178;2024-02-15T05:04:12;0.30;99.90
64226;DHT22;50545;56.064;26.178;2024-02-15T05:06:40;0.30;99.90
64226;DHT22;50545;56.064;26.178;2024-02-15T05:09:08;0.20;99.90
64226;DHT22;50545;56.064;26.178;2024-02-15T05:11:38;0.20;99.90
64226;DHT22;50545;56.064;26.178;2024-02-15T05:14:08;0.30;99.90
64226;DHT22;50545;56.064;26.178;2024-02-15T05:16:38;0.30;99.90
64226;DHT22;50545;56.064;26.178;2024-02-15T05:19:09;0.30;99.90
64226;DHT22;50545;56.064;26.178;2024-02-15T05:21:40;0.40;99.90
64226;DHT22;50545;56.064;26.178;2024-02-15T05:24:08;0.40;99.90
64226;DHT22;50545;56.064;26.178;2024-02-15T05:26:35;0.50;99.90
64226;DHT22;50545;56.064;26.178;2024-02-15T05:29:03;0.50;99.90
64226;DHT22;50545;56.064;26.178;2024-02-15T05:31:32;0.60;99.90
64226;DHT22;50545;56.064;26.178;2024-02-15T05:34:01;0.60;99.90
64226;DHT22;50545;56.064;26.178;2024-02-15T05:36:30;0.60;99.90
64226;DHT22;50545;56.064;26.178;2024-02-15T05:38:57;0.70;99.90
64226;DHT22;50545;56.064;26.178;2024-02-15T05:41:25;0.70;99.90
64226;DHT22;50545;56.064;26.178;2024-02-15T05:43:53;0.80;99.90
64226;DHT22;50545;56.064;26.178;2024-02-15T05:46:20;0.80;99.90
64226;DHT22;50545;56.064;26.178;2024-02-15T05:48:48;0.80;99.90
64226;DHT22;50545;56.064;26.178;2024-02-15T05:51:16;0.80;99.90
64226;DHT22;50545;56.064;26.178;2024-02-15T05:53:44;0.80;99.90
64226;DHT22;50545;56.064;26.178;2024-02-15T05:56:12;0.80;99.90
64226;DHT22;50545;56.064;26.178;2024-02-15T05:58:40;0.80;99.90
64226;DHT22;50545;56.064;26.178;2024-02-15T06:01:08;0.80;99.90
64226;DHT22;50545;56.064;26.178;2024-02-15T06:03:38;0.90;99.90
64226;DHT22;50545;56.064;26.178;2024-02-15T06:06:07;0.90;99.90
64226;DHT22;50545;56.064;26.178;2024-02-15T06:08:37;1.00;99.90
64226;DHT22;50545;56.064;26.178;2024-02-15T06:11:04;1.10;99.90
64226;DHT22;50545;56.064;26.178;2024-02-15T06:13:37;1.20;99.90
64226;DHT22;50545;56.064;26.178;2024-02-15T06:16:04;1.20;99.90
64226;DHT22;50545;56.064;26.178;2024-02-15T06:18:36;1.30;99.90
64226;DHT22;50545;56.064;26.178;2024-02-15T06:21:05;1.30;99.90
64226;DHT22;50545;56.064;26.178;2024-02-15T06:23:33;1.30;99.90
64226;DHT22;50545;56.064;26.178;2024-02-15T06:26:01;1.30;99.90
64226;DHT22;50545;56.064;26.178;2024-02-15T06:28:30;1.30;99.90
64226;DHT22;50545;56.064;26.178;2024-02-15T06:31:15;1.40;99.90
64226;DHT22;50545;56.064;26.178;2024-02-15T06:34:01;1.40;99.90
64226;DHT22;50545;56.064;26.178;2024-02-15T06:37:07;1.40;99.90
64226;DHT22;50545;56.064;26.178;2024-02-15T06:39:53;1.40;99.90
64226;DHT22;50545;56.064;26.178;2024-02-15T06:42:20;1.40;99.90
64226;DHT22;50545;56.064;26.178;2024-02-15T06:44:48;1.40;99.90
64226;DHT22;50545;56.064;26.178;2024-02-15T06:47:16;1.50;99.90
64226;DHT22;50545;56.064;26.178;2024-02-15T06:49:46;1.50;99.90
64226;DHT22;50545;56.064;26.178;2024-02-15T06:52:17;1.50;99.90
64226;DHT22;50545;56.064;26.178;2024-02-15T06:54:44;1.60;99.90
64226;DHT22;50545;56.064;26.178;2024-02-15T06:57:12;1.60;99.90
64226;DHT22;50545;56.064;26.178;2024-02-15T06:59:40;1.60;99.90
64226;DHT22;50545;56.064;26.178;2024-02-15T07:02:08;1.60;99.90
64226;DHT22;50545;56.064;26.178;2024-02-15T07:04:35;1.70;99.90
64226;DHT22;50545;56.064;26.178;2024-02-15T07:07:04;1.70;99.90
64226;DHT22;50545;56.064;26.178;2024-02-15T07:09:32;1.70;99.90
64226;DHT22;50545;56.064;26.178;2024-02-15T07:11:59;1.80;99.90
64226;DHT22;50545;56.064;26.178;2024-02-15T07:14:27;1.90;99.90
64226;DHT22;50545;56.064;26.178;2024-02-15T07:16:55;1.90;99.90
64226;DHT22;50545;56.064;26.178;2024-02-15T07:19:26;2.00;99.90
64226;DHT22;50545;56.064;26.178;2024-02-15T07:21:55;2.00;99.90
64226;DHT22;50545;56.064;26.178;2024-02-15T07:24:24;2.10;99.90
64226;DHT22;50545;56.064;26.178;2024-02-15T07:26:54;2.10;99.90
64226;DHT22;50545;56.064;26.178;2024-02-15T07:29:25;2.20;99.90
64226;DHT22;50545;56.064;26.178;2024-02-15T07:31:52;2.20;99.90
64226;DHT22;50545;56.064;26.178;2024-02-15T07:34:21;2.20;99.90
64226;DHT22;50545;56.064;26.178;2024-02-15T07:36:50;2.20;99.90
64226;DHT22;50545;56.064;26.178;2024-02-15T07:39:17;2.20;99.90
64226;DHT22;50545;56.064;26.178;2024-02-15T07:41:52;2.30;99.90
64226;DHT22;50545;56.064;26.178;2024-02-15T07:44:20;2.30;99.90
64226;DHT22;50545;56.064;26.178;2024-02-15T07:46:49;2.30;99.90
64226;DHT22;50545;56.064;26.178;2024-02-15T07:49:19;2.30;99.90
64226;DHT22;50545;56.064;26.178;2024-02-15T07:51:49;2.40;99.90
64226;DHT22;50545;56.064;26.178;2024-02-15T07:54:20;2.40;99.90
64226;DHT22;50545;56.064;26.178;2024-02-15T07:56:48;2.40;99.90
64226;DHT22;50545;56.064;26.178;2024-02-15T07:59:16;2.50;99.90
64226;DHT22;50545;56.064;26.178;2024-02-15T08:01:44;2.50;99.90
64226;DHT22;50545;56.064;26.178;2024-02-15T08:04:14;2.60;99.90
64226;DHT22;50545;56.064;26.178;2024-02-15T08:06:44;2.60;99.90
64226;DHT22;50545;56.064;26.178;2024-02-15T08:09:11;2.70;99.90
64226;DHT22;50545;56.064;26.178;2024-02-15T08:11:42;2.70;99.90
64226;DHT22;50545;56.064;26.178;2024-02-15T08:14:10;2.80;99.90
64226;DHT22;50545;56.064;26.178;2024-02-15T08:16:40;2.80;99.90
64226;DHT22;50545;56.064;26.178;2024-02-15T08:19:10;2.80;99.90
64226;DHT22;50545;56.064;26.178;2024-02-15T08:21:38;2.90;99.90
64226;DHT22;50545;56.064;26.178;2024-02-15T08:24:08;2.90;99.90
64226;DHT22;50545;56.064;26.178;2024-02-15T08:26:37;3.00;99.90
64226;DHT22;50545;56.064;26.178;2024-02-15T08:29:11;3.00;99.90
64226;DHT22;50545;56.064;26.178;2024-02-15T08:31:40;3.10;99.90
64226;DHT22;50545;56.064;26.178;2024-02-15T08:34:09;3.10;99.90
64226;DHT22;50545;56.064;26.178;2024-02-15T08:36:40;3.20;99.90
64226;DHT22;50545;56.064;26.178;2024-02-15T08:39:08;3.20;99.90
64226;DHT22;50545;56.064;26.178;2024-02-15T08:41:39;3.30;99.90
64226;DHT22;50545;56.064;26.178;2024-02-15T08:44:07;3.30;99.90
64226;DHT22;50545;56.064;26.178;2024-02-15T08:46:39;3.40;99.90
64226;DHT22;50545;56.064;26.178;2024-02-15T08:49:06;3.40;99.90
64226;DHT22;50545;56.064;26.178;2024-02-15T08:51:34;3.40;99.90
64226;DHT22;50545;56.064;26.178;2024-02-15T08:54:01;3.40;99.90
64226;DHT22;50545;56.064;26.178;2024-02-15T08:56:29;3.50;99.90
64226;DHT22;50545;56.064;26.178;2024-02-15T08:58:56;3.50;99.90
64226;DHT22;50545;56.064;26.178;2024-02-15T09:01:28;3.60;99.90
64226;DHT22;50545;56.064;26.178;2024-02-15T09:03:57;3.70;99.90
64226;DHT22;50545;56.064;26.178;2024-02-15T09:06:25;3.70;99.90
64226;DHT22;50545;56.064;26.178;2024-02-15T09:08:53;3.80;99.90
64226;DHT22;50545;56.064;26.178;2024-02-15T09:11:21;3.80;99.90
64226;DHT22;50545;56.064;26.178;2024-02-15T09:13:50;3.90;99.90
64226;DHT22;50545;56.064;26.178;2024-02-15T09:16:18;3.90;99.90
64226;DHT22;50545;56.064;26.178;2024-02-15T09:18:48;3.90;99.90
64226;DHT22;50545;56.064;26.178;2024-02-15T09:21:16;3.90;99.80
64226;DHT22;50545;56.064;26.178;2024-02-15T09:23:44;3.80;99.80
64226;DHT22;50545;56.064;26.178;2024-02-15T09:26:12;3.80;99.80
64226;DHT22;50545;56.064;26.178;2024-02-15T09:28:40;3.80;99.30
64226;DHT22;50545;56.064;26.178;2024-02-15T09:31:08;3.80;99.40
64226;DHT22;50545;56.064;26.178;2024-02-15T09:33:39;3.80;99.40
64226;DHT22;50545;56.064;26.178;2024-02-15T09:36:06;3.80;99.40
64226;DHT22;50545;56.064;26.178;2024-02-15T09:38:34;3.80;99.60
64226;DHT22;50545;56.064;26.178;2024-02-15T09:41:03;4.00;99.80
64226;DHT22;50545;56.064;26.178;2024-02-15T09:43:35;4.00;99.30
64226;DHT22;50545;56.064;26.178;2024-02-15T09:46:03;4.10;99.00
64226;DHT22;50545;56.064;26.178;2024-02-15T09:48:32;4.10;98.60
64226;DHT22;50545;56.064;26.178;2024-02-15T09:51:01;4.10;98.70
64226;DHT22;50545;56.064;26.178;2024-02-15T09:53:30;4.20;98.70
64226;DHT22;50545;56.064;26.178;2024-02-15T09:55:59;4.10;98.60
64226;DHT22;50545;56.064;26.178;2024-02-15T09:58:31;4.10;98.70
64226;DHT22;50545;56.064;26.178;2024-02-15T10:01:03;4.20;98.70
64226;DHT22;50545;56.064;26.178;2024-02-15T10:03:37;4.20;98.80
64226;DHT22;50545;56.064;26.178;2024-02-15T10:06:07;4.30;98.70
64226;DHT22;50545;56.064;26.178;2024-02-15T10:08:36;4.30;98.60
64226;DHT22;50545;56.064;26.178;2024-02-15T10:11:08;4.30;98.40
64226;DHT22;50545;56.064;26.178;2024-02-15T10:13:37;4.40;98.50
64226;DHT22;50545;56.064;26.178;2024-02-15T10:16:19;4.40;98.30
64226;DHT22;50545;56.064;26.178;2024-02-15T10:18:47;4.50;98.20
64226;DHT22;50545;56.064;26.178;2024-02-15T10:21:27;4.50;97.50
64226;DHT22;50545;56.064;26.178;2024-02-15T10:24:09;4.40;97.60
64226;DHT22;50545;56.064;26.178;2024-02-15T10:26:37;4.40;97.90
64226;DHT22;50545;56.064;26.178;2024-02-15T10:29:09;4.50;98.00
64226;DHT22;50545;56.064;26.178;2024-02-15T10:31:39;4.40;97.90
64226;DHT22;50545;56.064;26.178;2024-02-15T10:34:09;4.40;97.70
64226;DHT22;50545;56.064;26.178;2024-02-15T10:36:37;4.40;97.70
64226;DHT22;50545;56.064;26.178;2024-02-15T10:39:17;4.30;97.40
64226;DHT22;50545;56.064;26.178;2024-02-15T10:41:50;4.30;97.50
64226;DHT22;50545;56.064;26.178;2024-02-15T10:44:19;4.30;97.90
64226;DHT22;50545;56.064;26.178;2024-02-15T10:46:48;4.30;98.00
64226;DHT22;50545;56.064;26.178;2024-02-15T10:49:22;4.30;98.10
64226;DHT22;50545;56.064;26.178;2024-02-15T10:52:00;4.30;97.60
64226;DHT22;50545;56.064;26.178;2024-02-15T10:55:07;4.30;97.70
64226;DHT22;50545;56.064;26.178;2024-02-15T10:57:40;4.20;97.70
64226;DHT22;50545;56.064;26.178;2024-02-15T11:00:14;4.20;97.80
64226;DHT22;50545;56.064;26.178;2024-02-15T11:02:54;4.10;97.40
64226;DHT22;50545;56.064;26.178;2024-02-15T11:05:25;4.10;97.70
64226;DHT22;50545;56.064;26.178;2024-02-15T11:07:53;4.10;98.00
64226;DHT22;50545;56.064;26.178;2024-02-15T11:10:22;4.10;98.00
64226;DHT22;50545;56.064;26.178;2024-02-15T11:12:51;4.00;98.20
64226;DHT22;50545;56.064;26.178;2024-02-15T11:15:43;4.10;98.20
64226;DHT22;50545;56.064;26.178;2024-02-15T11:18:12;4.10;98.40
64226;DHT22;50545;56.064;26.178;2024-02-15T11:23:07;4.10;98.20
64226;DHT22;50545;56.064;26.178;2024-02-15T11:25:43;4.10;98.00
64226;DHT22;50545;56.064;26.178;2024-02-15T11:30:50;4.20;98.30
64226;DHT22;50545;56.064;26.178;2024-02-15T11:33:34;4.20;98.20
64226;DHT22;50545;56.064;26.178;2024-02-15T11:36:09;4.20;97.90
64226;DHT22;50545;56.064;26.178;2024-02-15T11:38:40;4.10;98.00
64226;DHT22;50545;56.064;26.178;2024-02-15T11:41:09;4.10;98.00
64226;DHT22;50545;56.064;26.178;2024-02-15T11:46:18;4.10;97.90
64226;DHT22;50545;56.064;26.178;2024-02-15T11:48:47;4.00;97.90
64226;DHT22;50545;56.064;26.178;2024-02-15T11:51:35;4.00;97.80
64226;DHT22;50545;56.064;26.178;2024-02-15T11:54:11;4.00;98.00
64226;DHT22;50545;56.064;26.178;2024-02-15T11:59:19;3.90;97.90
64226;DHT22;50545;56.064;26.178;2024-02-15T12:01:57;3.90;98.00
64226;DHT22;50545;56.064;26.178;2024-02-15T12:04:44;3.90;98.10
64226;DHT22;50545;56.064;26.178;2024-02-15T12:07:31;3.90;98.00
64226;DHT22;50545;56.064;26.178;2024-02-15T12:10:18;3.90;97.90
64226;DHT22;50545;56.064;26.178;2024-02-15T12:13:04;4.00;98.00
64226;DHT22;50545;56.064;26.178;2024-02-15T12:15:59;4.00;97.90
64226;DHT22;50545;56.064;26.178;2024-02-15T12:18:46;3.90;98.00
64226;DHT22;50545;56.064;26.178;2024-02-15T12:21:18;3.90;98.00
64226;DHT22;50545;56.064;26.178;2024-02-15T12:23:48;3.90;97.80
64226;DHT22;50545;56.064;26.178;2024-02-15T12:26:20;3.80;98.00
64226;DHT22;50545;56.064;26.178;2024-02-15T12:28:51;3.80;97.90
64226;DHT22;50545;56.064;26.178;2024-02-15T12:31:23;3.80;97.80
64226;DHT22;50545;56.064;26.178;2024-02-15T12:34:00;3.80;98.00
64226;DHT22;50545;56.064;26.178;2024-02-15T12:36:28;3.80;97.90
64226;DHT22;50545;56.064;26.178;2024-02-15T12:39:03;3.70;98.00
64226;DHT22;50545;56.064;26.178;2024-02-15T12:41:39;3.70;97.80
64226;DHT22;50545;56.064;26.178;2024-02-15T12:44:10;3.70;98.20
64226;DHT22;50545;56.064;26.178;2024-02-15T12:46:40;3.70;97.80
64226;DHT22;50545;56.064;26.178;2024-02-15T12:49:24;3.60;97.80
64226;DHT22;50545;56.064;26.178;2024-02-15T12:52:34;3.60;98.10
64226;DHT22;50545;56.064;26.178;2024-02-15T12:57:36;3.60;98.30
64226;DHT22;50545;56.064;26.178;2024-02-15T13:00:04;3.60;98.40
64226;DHT22;50545;56.064;26.178;2024-02-15T13:02:38;3.70;98.30
64226;DHT22;50545;56.064;26.178;2024-02-15T13:05:06;3.60;98.30
64226;DHT22;50545;56.064;26.178;2024-02-15T13:07:37;3.60;98.40
64226;DHT22;50545;56.064;26.178;2024-02-15T13:10:05;3.60;98.40
64226;DHT22;50545;56.064;26.178;2024-02-15T13:12:36;3.60;98.50
64226;DHT22;50545;56.064;26.178;2024-02-15T13:15:05;3.60;98.50
64226;DHT22;50545;56.064;26.178;2024-02-15T13:17:34;3.60;98.50
64226;DHT22;50545;56.064;26.178;2024-02-15T13:20:02;3.50;98.50
64226;DHT22;50545;56.064;26.178;2024-02-15T13:22:38;3.50;98.40
64226;DHT22;50545;56.064;26.178;2024-02-15T13:25:07;3.40;98.40
64226;DHT22;50545;56.064;26.178;2024-02-15T13:27:37;3.40;98.20
64226;DHT22;50545;56.064;26.178;2024-02-15T13:30:06;3.40;98.50
64226;DHT22;50545;56.064;26.178;2024-02-15T13:32:39;3.40;98.50
64226;DHT22;50545;56.064;26.178;2024-02-15T13:35:10;3.40;98.50
64226;DHT22;50545;56.064;26.178;2024-02-15T13:37:47;3.30;98.70
64226;DHT22;50545;56.064;26.178;2024-02-15T13:40:16;3.30;98.70
64226;DHT22;50545;56.064;26.178;2024-02-15T13:42:45;3.30;98.40
64226;DHT22;50545;56.064;26.178;2024-02-15T13:45:17;3.20;98.40
64226;DHT22;50545;56.064;26.178;2024-02-15T13:47:45;3.20;98.30
64226;DHT22;50545;56.064;26.178;2024-02-15T13:50:14;3.20;98.40
64226;DHT22;50545;56.064;26.178;2024-02-15T13:52:43;3.10;98.50
64226;DHT22;50545;56.064;26.178;2024-02-15T13:55:15;3.10;98.60
64226;DHT22;50545;56.064;26.178;2024-02-15T13:57:46;3.10;98.60
64226;DHT22;50545;56.064;26.178;2024-02-15T14:00:15;3.10;98.60
64226;DHT22;50545;56.064;26.178;2024-02-15T14:02:50;3.00;98.90
64226;DHT22;50545;56.064;26.178;2024-02-15T14:05:18;3.00;98.80
64226;DHT22;50545;56.064;26.178;2024-02-15T14:07:54;3.00;98.90
64226;DHT22;50545;56.064;26.178;2024-02-15T14:10:23;2.90;99.00
64226;DHT22;50545;56.064;26.178;2024-02-15T14:12:52;2.80;99.10
64226;DHT22;50545;56.064;26.178;2024-02-15T14:15:20;2.80;99.00
64226;DHT22;50545;56.064;26.178;2024-02-15T14:17:49;2.80;99.00
64226;DHT22;50545;56.064;26.178;2024-02-15T14:20:17;2.80;99.10
64226;DHT22;50545;56.064;26.178;2024-02-15T14:22:47;2.70;99.00
64226;DHT22;50545;56.064;26.178;2024-02-15T14:25:24;2.70;98.90
64226;DHT22;50545;56.064;26.178;2024-02-15T14:27:58;2.60;98.80
64226;DHT22;50545;56.064;26.178;2024-02-15T14:30:26;2.60;98.80
64226;DHT22;50545;56.064;26.178;2024-02-15T14:33:12;2.60;98.60
64226;DHT22;50545;56.064;26.178;2024-02-15T14:35:46;2.60;98.80
64226;DHT22;50545;56.064;26.178;2024-02-15T14:38:13;2.60;98.90
64226;DHT22;50545;56.064;26.178;2024-02-15T14:40:44;2.50;99.10
64226;DHT22;50545;56.064;26.178;2024-02-15T14:43:20;2.50;99.10
64226;DHT22;50545;56.064;26.178;2024-02-15T14:45:49;2.50;99.10
64226;DHT22;50545;56.064;26.178;2024-02-15T14:48:16;2.50;99.10
64226;DHT22;50545;56.064;26.178;2024-02-15T14:50:48;2.40;99.30
64226;DHT22;50545;56.064;26.178;2024-02-15T14:53:19;2.40;99.40
64226;DHT22;50545;56.064;26.178;2024-02-15T14:55:46;2.40;99.50
64226;DHT22;50545;56.064;26.178;2024-02-15T14:58:14;2.40;99.70
64226;DHT22;50545;56.064;26.178;2024-02-15T15:00:44;2.30;99.60
64226;DHT22;50545;56.064;26.178;2024-02-15T15:03:14;2.30;99.70
64226;DHT22;50545;56.064;26.178;2024-02-15T15:05:42;2.30;99.80
64226;DHT22;50545;56.064;26.178;2024-02-15T15:08:42;2.30;99.90
64226;DHT22;50545;56.064;26.178;2024-02-15T15:11:28;2.20;99.90
64226;DHT22;50545;56.064;26.178;2024-02-15T15:14:14;2.20;99.90
64226;DHT22;50545;56.064;26.178;2024-02-15T15:16:41;2.20;99.90
64226;DHT22;50545;56.064;26.178;2024-02-15T15:19:09;2.20;99.90
64226;DHT22;50545;56.064;26.178;2024-02-15T15:21:38;2.20;99.90
64226;DHT22;50545;56.064;26.178;2024-02-15T15:24:07;2.10;99.90
64226;DHT22;50545;56.064;26.178;2024-02-15T15:26:37;2.10;99.90
64226;DHT22;50545;56.064;26.178;2024-02-15T15:29:04;2.10;99.90
64226;DHT22;50545;56.064;26.178;2024-02-15T15:31:33;2.10;99.90
64226;DHT22;50545;56.064;26.178;2024-02-15T15:34:02;2.00;99.90
64226;DHT22;50545;56.064;26.178;2024-02-15T15:36:30;2.00;99.90
64226;DHT22;50545;56.064;26.178;2024-02-15T15:38:58;2.00;99.90
64226;DHT22;50545;56.064;26.178;2024-02-15T15:41:25;2.00;99.90
64226;DHT22;50545;56.064;26.178;2024-02-15T15:43:55;2.00;99.90
64226;DHT22;50545;56.064;26.178;2024-02-15T15:46:22;2.00;99.90
64226;DHT22;50545;56.064;26.178;2024-02-15T15:48:50;2.00;99.90
64226;DHT22;50545;56.064;26.178;2024-02-15T15:51:18;2.00;99.90
64226;DHT22;50545;56.064;26.178;2024-02-15T15:53:46;2.00;99.90
64226;DHT22;50545;56.064;26.178;2024-02-15T15:56:14;1.90;99.90
64226;DHT22;50545;56.064;26.178;2024-02-15T15:58:42;2.00;99.90
64226;DHT22;50545;56.064;26.178;2024-02-15T16:01:12;2.00;99.90